createdAt,value
2022-12-16T00:02:38.615Z,11.07
2022-12-16T00:07:42.252Z,11.07
2022-12-16T00:12:47.058Z,11.40
2022-12-16T00:22:55.444Z,9.65
2022-12-16T00:28:00.619Z,11.20
2022-12-16T00:33:04.225Z,10.97
2022-12-16T00:38:07.725Z,10.50
2022-12-16T00:43:12.969Z,10.57
2022-12-16T00:48:17.332Z,11.00
2022-12-16T00:53:21.314Z,10.07
2022-12-16T00:58:26.090Z,10.13
2022-12-16T01:08:32.539Z,10.23
2022-12-16T01:13:37.482Z,9.87
2022-12-16T01:18:41.000Z,8.65
2022-12-16T01:23:44.391Z,9.33
2022-12-16T01:28:50.682Z,10.45
2022-12-16T01:33:54.323Z,10.67
2022-12-16T01:38:58.338Z,10.07
2022-12-16T01:44:17.402Z,9.13
2022-12-16T01:49:26.108Z,8.43
2022-12-16T01:59:57.169Z,9.17
2022-12-16T02:05:17.915Z,9.45
2022-12-16T02:15:53.499Z,9.07
2022-12-16T02:21:40.274Z,9.23
2022-12-16T02:32:33.300Z,9.65
2022-12-16T02:37:44.195Z,9.23
2022-12-16T02:42:54.059Z,8.32
2022-12-16T02:48:00.178Z,8.98
2022-12-16T02:53:05.820Z,8.68
2022-12-16T02:58:17.833Z,8.55
2022-12-16T03:03:30.998Z,9.35
2022-12-16T03:08:39.310Z,9.52
2022-12-16T03:13:46.568Z,8.50
2022-12-16T03:24:15.779Z,8.93
2022-12-16T03:29:25.954Z,8.77
2022-12-16T03:40:02.783Z,8.50
2022-12-16T03:45:09.582Z,7.55
2022-12-16T03:50:14.466Z,7.97
2022-12-16T03:55:17.885Z,6.82
2022-12-16T04:00:21.643Z,6.68
2022-12-16T04:05:26.574Z,7.00
2022-12-16T04:10:43.880Z,7.63
2022-12-16T04:16:13.151Z,7.68
2022-12-16T04:21:35.337Z,7.38
2022-12-16T04:26:52.573Z,7.07
2022-12-16T04:31:56.315Z,7.60
2022-12-16T04:37:20.855Z,7.50
2022-12-16T04:48:35.403Z,7.30
2022-12-16T04:53:57.563Z,8.05
2022-12-16T05:04:58.761Z,7.47
2022-12-16T05:10:21.191Z,7.45
2022-12-16T05:15:42.082Z,7.85
2022-12-16T05:21:02.639Z,7.07
2022-12-16T05:26:27.116Z,7.60
2022-12-16T05:37:25.799Z,6.70
2022-12-16T05:42:47.828Z,7.57
2022-12-16T05:48:08.469Z,7.43
2022-12-16T05:53:29.524Z,7.35
2022-12-16T05:58:51.510Z,7.88
2022-12-16T06:04:17.226Z,7.72
2022-12-16T06:09:38.741Z,7.88
2022-12-16T06:15:00.914Z,9.20
2022-12-16T06:20:21.588Z,7.85
2022-12-16T06:25:42.508Z,6.47
2022-12-16T06:31:04.819Z,6.22
2022-12-16T06:36:26.304Z,6.82
2022-12-16T06:41:47.468Z,6.13
2022-12-16T06:47:09.838Z,6.70
2022-12-16T06:52:30.634Z,6.90
2022-12-16T06:57:50.694Z,7.18
2022-12-16T07:03:12.849Z,6.90
2022-12-16T07:08:32.874Z,6.72
2022-12-16T07:13:53.509Z,7.32
2022-12-16T07:19:14.999Z,6.63
2022-12-16T07:24:35.794Z,6.40
2022-12-16T07:29:56.534Z,7.13
2022-12-16T07:35:18.823Z,7.05
2022-12-16T07:40:39.739Z,6.55
2022-12-16T07:46:03.214Z,7.72
2022-12-16T07:51:25.487Z,7.07
2022-12-16T07:56:46.328Z,8.02
2022-12-16T08:02:07.147Z,7.18
2022-12-16T08:07:29.634Z,7.07
2022-12-16T08:12:50.212Z,6.50
2022-12-16T08:18:11.776Z,7.47
2022-12-16T08:23:33.449Z,6.90
2022-12-16T08:28:54.633Z,6.65
2022-12-16T08:34:15.254Z,6.75
2022-12-16T08:39:37.838Z,6.88
2022-12-16T08:44:58.451Z,6.72
2022-12-16T08:50:19.246Z,6.25
2022-12-16T08:55:41.487Z,6.78
2022-12-16T09:01:07.045Z,7.35
2022-12-16T09:06:28.822Z,7.18
2022-12-16T09:11:50.854Z,6.63
2022-12-16T09:17:12.383Z,6.85
2022-12-16T09:22:33.165Z,6.88
2022-12-16T09:27:55.205Z,7.15
2022-12-16T09:33:16.886Z,7.65
2022-12-16T09:38:37.713Z,6.53
2022-12-16T09:44:19.758Z,6.20
2022-12-16T09:49:54.665Z,6.45
2022-12-16T09:55:16.229Z,6.90
2022-12-16T10:00:41.554Z,6.40
2022-12-16T10:06:12.721Z,7.43
2022-12-16T10:11:40.357Z,7.03
2022-12-16T10:17:10.962Z,6.45
2022-12-16T10:22:39.691Z,6.57
2022-12-16T10:28:04.277Z,6.72
2022-12-16T10:33:32.637Z,5.90
2022-12-16T10:38:59.331Z,5.75
2022-12-16T10:44:22.775Z,7.13
2022-12-16T10:49:47.454Z,7.10
2022-12-16T10:55:20.894Z,6.87
2022-12-16T11:01:00.775Z,6.70
2022-12-16T11:06:24.050Z,7.03
2022-12-16T11:11:47.843Z,6.75
2022-12-16T11:17:33.376Z,6.00
2022-12-16T11:22:55.742Z,7.43
2022-12-16T11:28:21.967Z,6.75
2022-12-16T11:33:46.746Z,7.20
2022-12-16T11:39:10.939Z,7.05
2022-12-16T11:44:37.427Z,7.13
2022-12-16T11:49:59.634Z,7.50
2022-12-16T11:56:03.219Z,7.03
2022-12-16T12:01:21.384Z,7.20
2022-12-16T12:06:51.180Z,7.43
2022-12-16T12:12:19.242Z,7.47
2022-12-16T12:17:47.770Z,8.00
2022-12-16T12:23:08.356Z,8.48
2022-12-16T12:28:40.044Z,8.93
2022-12-16T12:34:14.943Z,9.50
2022-12-16T12:39:41.047Z,9.80
2022-12-16T12:45:13.612Z,8.70
2022-12-16T12:50:40.478Z,8.37
2022-12-16T12:56:08.786Z,8.57
2022-12-16T13:01:32.267Z,6.97
2022-12-16T13:06:50.929Z,6.27
2022-12-16T13:12:40.846Z,6.38
2022-12-16T13:18:38.655Z,6.43
2022-12-16T13:24:00.791Z,6.67
2022-12-16T13:29:36.544Z,7.57
2022-12-16T13:35:13.420Z,7.20
2022-12-16T13:40:38.065Z,7.00
2022-12-16T13:46:01.147Z,7.32
2022-12-16T13:51:23.467Z,7.88
2022-12-16T13:56:52.091Z,7.70
2022-12-16T14:02:15.883Z,8.10
2022-12-16T14:07:40.829Z,8.48
2022-12-16T14:13:14.712Z,8.38
2022-12-16T14:18:46.692Z,7.95
2022-12-16T14:24:16.159Z,8.03
2022-12-16T14:29:41.385Z,7.87
2022-12-16T14:35:02.258Z,6.73
2022-12-16T14:40:39.256Z,6.80
2022-12-16T14:46:07.917Z,6.93
2022-12-16T14:51:50.815Z,6.37
2022-12-16T14:57:16.414Z,5.87
2022-12-16T15:02:44.788Z,6.97
2022-12-16T15:08:05.750Z,6.67
2022-12-16T15:13:35.416Z,6.17
2022-12-16T15:18:59.687Z,6.70
2022-12-16T15:24:31.827Z,6.20
2022-12-16T15:29:55.581Z,6.47
2022-12-16T15:35:16.439Z,6.67
2022-12-16T15:40:44.134Z,6.47
2022-12-16T15:46:08.979Z,6.70
2022-12-16T15:51:40.704Z,6.18
2022-12-16T15:57:03.714Z,6.43
2022-12-16T16:02:32.745Z,6.13
2022-12-16T16:07:54.602Z,5.40
2022-12-16T16:13:17.678Z,5.80
2022-12-16T16:18:40.019Z,5.50
2022-12-16T16:24:00.687Z,5.50
2022-12-16T16:29:22.115Z,5.37
2022-12-16T16:34:44.010Z,6.63
2022-12-16T16:40:16.069Z,6.40
2022-12-16T16:45:36.693Z,6.30
2022-12-16T16:50:58.887Z,5.80
2022-12-16T16:56:25.446Z,6.00
2022-12-16T17:01:46.293Z,6.57
2022-12-16T17:07:08.580Z,6.30
2022-12-16T17:12:39.399Z,6.57
2022-12-16T17:18:00.123Z,6.40
2022-12-16T17:23:22.417Z,5.97
2022-12-16T17:28:43.000Z,6.33
2022-12-16T17:34:03.682Z,6.63
2022-12-16T17:39:26.181Z,6.83
2022-12-16T17:44:46.819Z,6.47
2022-12-16T17:50:07.501Z,7.00
2022-12-16T17:55:30.108Z,6.13
2022-12-16T18:00:50.963Z,6.73
2022-12-16T18:06:15.346Z,6.40
2022-12-16T18:11:38.931Z,6.57
2022-12-16T18:17:00.076Z,7.30
2022-12-16T18:22:21.338Z,7.70
2022-12-16T18:27:43.708Z,8.63
2022-12-16T18:33:04.400Z,11.13
2022-12-16T18:38:25.042Z,10.30
2022-12-16T18:43:47.476Z,8.93
2022-12-16T18:49:07.960Z,9.80
2022-12-16T18:54:28.601Z,8.97
2022-12-16T18:59:50.885Z,9.57
2022-12-16T19:05:11.706Z,10.77
2022-12-16T19:10:32.579Z,10.43
2022-12-16T19:15:54.890Z,10.10
2022-12-16T19:21:16.168Z,10.97
2022-12-16T19:26:36.644Z,10.13
2022-12-16T19:31:58.911Z,10.60
2022-12-16T19:37:20.078Z,10.17
2022-12-16T19:42:52.122Z,12.60
2022-12-16T19:48:22.903Z,10.90
2022-12-16T19:53:52.047Z,10.50
2022-12-16T19:59:12.734Z,11.30
2022-12-16T20:04:34.826Z,11.03
2022-12-16T20:09:56.191Z,11.60
2022-12-16T20:15:16.946Z,11.37
2022-12-16T20:20:39.427Z,12.03
2022-12-16T20:25:59.898Z,12.70
2022-12-16T20:31:21.095Z,12.93
2022-12-16T20:36:43.257Z,13.43
2022-12-16T20:42:04.289Z,13.50
2022-12-16T20:47:36.558Z,13.20
2022-12-16T20:52:58.938Z,14.37
2022-12-16T20:58:19.564Z,14.33
2022-12-16T21:03:40.441Z,13.47
2022-12-16T21:09:03.166Z,14.53
2022-12-16T21:14:23.778Z,15.13
2022-12-16T21:19:44.528Z,15.23
2022-12-16T21:25:06.632Z,14.07
2022-12-16T21:30:28.545Z,13.83
2022-12-16T21:35:51.986Z,13.93
2022-12-16T21:41:14.264Z,13.80
2022-12-16T21:46:35.114Z,13.73
2022-12-16T21:51:56.333Z,14.27
2022-12-16T21:57:18.491Z,14.47
2022-12-16T22:02:39.403Z,14.97
2022-12-16T22:07:59.969Z,16.50
2022-12-16T22:13:22.386Z,15.27
2022-12-16T22:18:43.426Z,15.57
2022-12-16T22:24:04.037Z,16.10
2022-12-16T22:29:26.319Z,15.83
2022-12-16T22:34:58.404Z,16.43
2022-12-16T22:40:19.131Z,16.47
2022-12-16T22:45:44.529Z,17.53
2022-12-16T22:51:16.523Z,16.80
2022-12-16T22:56:37.147Z,17.13
2022-12-16T23:01:59.316Z,16.23
2022-12-16T23:07:22.272Z,16.70
2022-12-16T23:12:43.254Z,18.43
2022-12-16T23:18:05.273Z,17.70
2022-12-16T23:23:25.944Z,16.90
2022-12-16T23:28:46.481Z,17.13
2022-12-16T23:34:08.875Z,16.63
2022-12-16T23:39:30.905Z,16.83
2022-12-16T23:44:56.332Z,16.15
2022-12-16T23:50:18.693Z,17.27
2022-12-16T23:55:39.133Z,17.07
